Time;durP1;ratioP1;P1;durP2;ratioP2;P2;SDS_P1;SDS_P2;PMS_P1;PMS_P2;Temp;Humidity;BMP_temperature;BMP_pressure;BME280_temperature;BME280_humidity;BME280_pressure;Samples;Min_cycle;Max_cycle;Signal;HPM_P1;HPM_P2
2021/12/02 00:01:22;;;;;;;1.27;0.80;;;4.80;99.90;;;;;;5065534;28;20032;-79
2021/12/02 00:03:48;;;;;;;1.60;0.98;;;4.70;99.90;;;;;;5062092;28;20115;-81
2021/12/02 00:06:17;;;;;;;1.88;1.27;;;4.80;99.90;;;;;;5062454;28;20116;-79
2021/12/02 00:08:44;;;;;;;1.38;0.88;;;4.80;99.90;;;;;;5048361;28;20513;-80
2021/12/02 00:11:10;;;;;;;0.80;0.80;;;4.80;99.90;;;;;;5065762;28;20099;-80
2021/12/02 00:13:46;;;;;;;1.15;0.85;;;4.80;99.90;;;;;;5063888;28;20159;-80
2021/12/02 00:21:09;;;;;;;1.63;1.15;;;4.80;99.90;;;;;;5045945;28;20484;-79
2021/12/02 00:24:03;;;;;;;1.77;0.98;;;4.70;99.90;;;;;;5063522;28;20174;-79
2021/12/02 00:26:30;;;;;;;1.08;0.93;;;4.70;99.90;;;;;;5062446;28;20041;-80
2021/12/02 00:28:59;;;;;;;1.38;0.90;;;4.70;99.90;;;;;;5043175;28;20515;-81
2021/12/02 00:31:31;;;;;;;0.98;0.85;;;4.60;99.90;;;;;;5067560;28;20047;-80
2021/12/02 00:34:00;;;;;;;7.38;1.33;;;4.60;99.90;;;;;;5064673;28;20029;-79
2021/12/02 00:36:28;;;;;;;1.38;0.90;;;4.60;99.90;;;;;;5062051;28;20028;-81
2021/12/02 00:38:55;;;;;;;3.30;1.50;;;4.50;99.90;;;;;;5051769;28;20040;-79
2021/12/02 00:41:24;;;;;;;1.52;1.38;;;4.50;99.90;;;;;;5057044;28;20059;-82
2021/12/02 00:43:52;;;;;;;9.98;1.80;;;4.40;99.90;;;;;;5044207;28;20120;-81
2021/12/02 00:46:20;;;;;;;3.53;1.15;;;4.30;99.90;;;;;;5060430;28;20033;-81
2021/12/02 00:48:47;;;;;;;3.55;1.30;;;4.20;99.90;;;;;;5063391;28;20483;-82
2021/12/02 00:51:14;;;;;;;2.05;1.40;;;4.10;99.90;;;;;;5042582;28;20029;-82
2021/12/02 00:53:44;;;;;;;2.78;1.40;;;4.10;99.90;;;;;;5064758;28;20107;-80
2021/12/02 00:56:12;;;;;;;3.70;1.75;;;4.10;99.90;;;;;;5059060;28;20465;-79
2021/12/02 00:58:39;;;;;;;2.97;1.20;;;4.10;99.90;;;;;;5045442;28;20090;-81
2021/12/02 01:01:05;;;;;;;1.92;1.20;;;4.10;99.90;;;;;;5061674;28;20381;-80
2021/12/02 01:03:34;;;;;;;1.58;1.13;;;4.10;99.90;;;;;;5062278;28;20391;-79
2021/12/02 01:06:04;;;;;;;2.25;1.10;;;4.10;99.90;;;;;;5063468;28;20025;-80
2021/12/02 01:08:32;;;;;;;1.75;0.90;;;4.10;99.90;;;;;;5065847;28;20020;-81
2021/12/02 01:10:58;;;;;;;1.13;0.75;;;4.00;99.90;;;;;;5064157;28;20021;-79
2021/12/02 01:13:24;;;;;;;2.85;1.40;;;4.10;99.90;;;;;;5064163;28;20039;-80
2021/12/02 01:15:50;;;;;;;2.85;1.10;;;4.10;99.90;;;;;;5044318;28;20058;-81
2021/12/02 01:18:15;;;;;;;2.60;1.42;;;4.00;99.90;;;;;;5063513;28;20031;-80
2021/12/02 01:20:44;;;;;;;1.15;1.00;;;4.00;99.90;;;;;;5083932;28;20046;-80
2021/12/02 01:23:11;;;;;;;1.48;0.73;;;4.10;99.90;;;;;;5087416;28;20021;-81
2021/12/02 01:25:37;;;;;;;2.40;1.10;;;4.00;99.90;;;;;;5090359;28;20057;-81
2021/12/02 01:28:04;;;;;;;0.80;0.70;;;4.00;99.90;;;;;;5073219;28;20142;-82
2021/12/02 01:30:31;;;;;;;0.57;0.57;;;4.00;99.90;;;;;;5068453;28;20013;-80
2021/12/02 01:33:00;;;;;;;0.82;0.57;;;4.00;99.90;;;;;;5086867;28;20055;-79
2021/12/02 01:35:27;;;;;;;3.22;1.17;;;3.90;99.90;;;;;;5050025;28;20586;-81
2021/12/02 01:37:53;;;;;;;2.28;0.82;;;4.00;99.90;;;;;;5065748;28;20024;-81
2021/12/02 01:40:19;;;;;;;0.73;0.70;;;3.90;99.90;;;;;;5061097;28;20025;-82
2021/12/02 01:42:47;;;;;;;4.38;0.77;;;3.90;99.90;;;;;;5062066;28;20048;-81
2021/12/02 01:45:16;;;;;;;1.08;0.75;;;3.90;99.90;;;;;;5063364;28;20049;-81
2021/12/02 01:47:49;;;;;;;2.17;0.90;;;3.90;99.90;;;;;;5060266;28;20099;-79
2021/12/02 01:50:23;;;;;;;1.55;0.80;;;3.90;99.90;;;;;;5046940;28;20081;-79
2021/12/02 01:52:59;;;;;;;1.50;0.80;;;3.80;99.90;;;;;;5060142;28;20052;-80
2021/12/02 01:55:28;;;;;;;1.20;0.68;;;3.80;99.90;;;;;;5047464;28;20485;-82
2021/12/02 01:58:05;;;;;;;1.20;0.77;;;3.90;99.90;;;;;;5039499;28;20063;-81
2021/12/02 02:00:46;;;;;;;1.45;0.80;;;3.80;99.90;;;;;;5041180;28;20044;-81
2021/12/02 02:03:15;;;;;;;2.67;0.63;;;3.80;99.90;;;;;;5067062;28;20030;-80
2021/12/02 02:05:41;;;;;;;0.95;0.50;;;3.80;99.90;;;;;;5063799;28;20045;-80
2021/12/02 02:08:20;;;;;;;0.90;0.80;;;3.80;99.90;;;;;;5042544;28;20029;-80
2021/12/02 02:10:46;;;;;;;0.93;0.60;;;3.80;99.90;;;;;;5047876;28;20049;-81
2021/12/02 02:13:13;;;;;;;1.83;0.73;;;3.80;99.90;;;;;;5041422;28;20021;-81
2021/12/02 02:15:41;;;;;;;0.40;0.40;;;3.70;99.90;;;;;;5044451;28;20040;-80
2021/12/02 02:18:15;;;;;;;0.88;0.60;;;3.70;99.90;;;;;;5040765;28;20029;-80
2021/12/02 02:20:43;;;;;;;1.08;0.80;;;3.70;99.90;;;;;;5041219;28;20052;-77
2021/12/02 02:23:12;;;;;;;1.55;0.95;;;3.70;99.90;;;;;;5041963;28;20080;-81
2021/12/02 02:25:39;;;;;;;1.17;0.95;;;3.70;99.90;;;;;;5041769;28;20083;-79
2021/12/02 02:28:05;;;;;;;4.15;0.80;;;3.70;99.90;;;;;;5044586;28;20476;-80
2021/12/02 02:30:30;;;;;;;1.85;0.82;;;3.60;99.90;;;;;;5041036;28;20518;-81
2021/12/02 02:32:56;;;;;;;0.70;0.70;;;3.60;99.90;;;;;;5042800;28;20029;-80
2021/12/02 02:35:22;;;;;;;1.00;0.60;;;3.60;99.90;;;;;;5039665;28;20136;-81
2021/12/02 02:37:48;;;;;;;1.48;0.80;;;3.50;99.90;;;;;;5042872;28;20109;-80
2021/12/02 02:40:16;;;;;;;0.98;0.63;;;3.50;99.90;;;;;;5043201;28;20515;-81
2021/12/02 02:42:45;;;;;;;1.13;0.80;;;3.50;99.90;;;;;;5039411;28;20028;-80
2021/12/02 02:45:11;;;;;;;1.40;0.93;;;3.40;99.90;;;;;;5056717;28;20096;-81
2021/12/02 02:47:37;;;;;;;1.33;0.90;;;3.40;99.90;;;;;;5042409;28;20033;-81
2021/12/02 02:50:03;;;;;;;1.65;0.90;;;3.30;99.90;;;;;;5044373;28;20025;-80
2021/12/02 02:52:31;;;;;;;1.50;0.80;;;3.30;99.90;;;;;;5039853;28;20030;-82
2021/12/02 02:54:57;;;;;;;1.50;1.13;;;3.20;99.90;;;;;;5043905;28;20037;-81
2021/12/02 02:57:27;;;;;;;1.58;1.25;;;3.10;99.90;;;;;;5059226;28;20037;-81
2021/12/02 03:02:35;;;;;;;1.45;0.77;;;3.10;99.90;;;;;;5067876;28;20040;-79
2021/12/02 03:07:53;;;;;;;1.17;0.80;;;3.10;99.90;;;;;;5073055;28;20033;-81
2021/12/02 03:10:55;;;;;;;3.42;0.80;;;3.10;99.90;;;;;;5087666;28;20016;-80
2021/12/02 03:18:22;;;;;;;1.98;0.90;;;3.00;99.90;;;;;;5040194;28;20044;-82
2021/12/02 03:20:47;;;;;;;1.65;1.00;;;3.00;99.90;;;;;;5046789;28;20400;-82
2021/12/02 03:23:13;;;;;;;2.25;1.10;;;3.00;99.90;;;;;;5044952;28;20043;-82
2021/12/02 03:25:39;;;;;;;3.95;1.40;;;2.90;99.90;;;;;;5047038;28;20086;-83
2021/12/02 03:28:05;;;;;;;2.53;1.30;;;2.80;99.90;;;;;;5047401;28;20025;-81
2021/12/02 03:30:31;;;;;;;1.63;1.17;;;2.70;99.90;;;;;;5033124;28;20447;-81
2021/12/02 03:32:57;;;;;;;2.95;1.50;;;2.70;99.90;;;;;;5046302;28;20029;-82
2021/12/02 03:35:22;;;;;;;3.97;1.52;;;2.60;99.90;;;;;;5041260;28;20048;-81
2021/12/02 03:37:48;;;;;;;3.42;1.50;;;2.70;99.90;;;;;;5041994;28;20489;-82
2021/12/02 03:40:14;;;;;;;2.47;1.42;;;2.70;99.90;;;;;;5046602;28;20035;-82
2021/12/02 03:42:45;;;;;;;3.22;1.67;;;2.70;99.90;;;;;;5047096;28;20096;-81
2021/12/02 03:45:11;;;;;;;2.15;1.33;;;2.70;99.90;;;;;;5055965;28;20085;-80
2021/12/02 03:47:37;;;;;;;2.55;1.23;;;2.70;99.90;;;;;;5046780;28;20496;-82
2021/12/02 03:50:03;;;;;;;3.97;1.80;;;2.70;99.90;;;;;;5059320;28;20040;-82
2021/12/02 03:52:28;;;;;;;3.90;2.03;;;2.60;99.90;;;;;;5064998;28;20036;-82
2021/12/02 03:54:54;;;;;;;4.07;1.65;;;2.70;99.90;;;;;;5047372;28;20582;-81
2021/12/02 03:57:20;;;;;;;2.95;1.45;;;2.70;99.90;;;;;;5066544;28;20037;-81
2021/12/02 03:59:46;;;;;;;6.00;2.22;;;2.60;99.90;;;;;;5048281;28;20033;-82
2021/12/02 04:02:12;;;;;;;3.63;2.10;;;2.60;99.90;;;;;;5047920;28;20028;-82
2021/12/02 04:04:38;;;;;;;4.30;2.17;;;2.50;99.90;;;;;;5046638;28;20056;-79
2021/12/02 04:07:04;;;;;;;3.75;2.00;;;2.40;99.90;;;;;;5061139;28;20370;-83
2021/12/02 04:09:36;;;;;;;4.25;1.83;;;2.40;99.90;;;;;;5060718;28;20074;-83
2021/12/02 04:12:15;;;;;;;3.15;1.80;;;2.40;99.90;;;;;;5044615;28;20033;-81
2021/12/02 04:14:47;;;;;;;3.42;1.70;;;2.50;99.90;;;;;;5050451;28;20461;-81
2021/12/02 04:17:14;;;;;;;2.65;1.58;;;2.40;99.90;;;;;;5062381;28;20033;-83
2021/12/02 04:19:40;;;;;;;3.35;1.45;;;2.30;99.90;;;;;;5063082;28;20028;-84
2021/12/02 04:22:06;;;;;;;3.42;2.20;;;2.30;99.90;;;;;;5057989;28;20028;-84
2021/12/02 04:24:32;;;;;;;3.55;1.55;;;2.20;99.90;;;;;;5064313;28;20043;-84
2021/12/02 04:26:59;;;;;;;1.98;1.38;;;2.20;99.90;;;;;;5066231;28;20024;-84
2021/12/02 04:29:25;;;;;;;3.45;1.30;;;2.20;99.90;;;;;;5065156;28;20032;-83
2021/12/02 04:31:52;;;;;;;3.33;1.60;;;2.20;99.90;;;;;;5064240;28;20076;-84
2021/12/02 04:34:18;;;;;;;3.95;2.03;;;2.10;99.90;;;;;;5068020;28;20058;-83
2021/12/02 04:36:44;;;;;;;5.50;2.22;;;2.10;99.90;;;;;;5047261;28;20037;-83
2021/12/02 04:39:11;;;;;;;3.33;1.33;;;2.10;99.90;;;;;;5063322;28;20491;-83
2021/12/02 04:41:37;;;;;;;4.25;1.77;;;2.10;99.90;;;;;;5065670;28;20039;-83
2021/12/02 04:44:03;;;;;;;2.72;1.35;;;2.00;99.90;;;;;;5065320;28;20028;-83
2021/12/02 04:46:29;;;;;;;5.03;2.15;;;1.90;99.90;;;;;;5064566;28;20033;-83
2021/12/02 04:48:55;;;;;;;2.80;1.75;;;2.00;99.90;;;;;;5065111;28;20024;-83
2021/12/02 04:51:20;;;;;;;3.28;2.08;;;2.00;99.90;;;;;;5060303;28;20028;-83
2021/12/02 04:53:46;;;;;;;5.57;2.05;;;2.00;99.90;;;;;;5047970;28;20033;-82
2021/12/02 04:56:12;;;;;;;3.00;1.50;;;2.00;99.90;;;;;;5065238;28;20031;-84
2021/12/02 04:58:37;;;;;;;4.68;2.22;;;1.90;99.90;;;;;;5065475;28;20565;-83
2021/12/02 05:01:03;;;;;;;4.05;1.80;;;1.90;99.90;;;;;;5064071;28;20041;-84
2021/12/02 05:03:29;;;;;;;2.85;2.05;;;1.80;99.90;;;;;;5046713;28;20510;-84
2021/12/02 05:05:54;;;;;;;3.15;2.15;;;1.90;99.90;;;;;;5064441;28;20029;-83
2021/12/02 05:08:20;;;;;;;7.45;1.75;;;1.80;99.90;;;;;;5061695;28;20025;-82
2021/12/02 05:10:46;;;;;;;7.57;2.20;;;1.70;99.90;;;;;;5063285;28;20029;-84
2021/12/02 05:13:11;;;;;;;3.97;2.03;;;1.70;99.90;;;;;;5061202;28;20040;-83
2021/12/02 05:15:37;;;;;;;4.38;2.53;;;1.80;99.90;;;;;;5063121;28;20063;-83
2021/12/02 05:18:03;;;;;;;4.03;2.15;;;1.70;99.90;;;;;;5061263;28;20090;-83
2021/12/02 05:20:29;;;;;;;2.80;1.42;;;1.80;99.90;;;;;;5048519;28;20036;-84
2021/12/02 05:22:54;;;;;;;4.47;2.17;;;1.70;99.90;;;;;;5067631;28;20060;-83
2021/12/02 05:25:20;;;;;;;5.13;2.10;;;1.70;99.90;;;;;;5061518;28;20446;-84
2021/12/02 05:27:46;;;;;;;4.90;1.85;;;1.70;99.90;;;;;;5030331;28;20063;-83
2021/12/02 05:30:12;;;;;;;6.72;2.15;;;1.80;99.90;;;;;;5064298;28;20032;-83
2021/12/02 05:32:37;;;;;;;6.95;2.10;;;1.70;99.90;;;;;;5066748;28;20093;-82
2021/12/02 05:35:04;;;;;;;2.92;1.67;;;1.70;99.90;;;;;;5067741;28;20088;-80
2021/12/02 05:37:30;;;;;;;3.63;2.08;;;1.60;99.90;;;;;;5067093;28;20028;-84
2021/12/02 05:39:56;;;;;;;3.22;1.70;;;1.50;99.90;;;;;;5056518;28;20029;-81
2021/12/02 05:42:21;;;;;;;5.15;2.05;;;1.50;99.90;;;;;;5067940;28;20484;-82
2021/12/02 05:44:47;;;;;;;4.07;2.13;;;1.50;99.90;;;;;;5064552;28;20084;-84
2021/12/02 05:47:13;;;;;;;4.75;2.00;;;1.50;99.90;;;;;;5062196;28;20048;-83
2021/12/02 05:49:39;;;;;;;3.92;2.15;;;1.40;99.90;;;;;;5042961;28;20029;-84
2021/12/02 05:52:05;;;;;;;6.00;1.63;;;1.40;99.90;;;;;;5060328;28;20024;-83
2021/12/02 05:54:31;;;;;;;4.80;2.28;;;1.40;99.90;;;;;;5060477;28;20040;-82
2021/12/02 05:56:57;;;;;;;4.22;1.90;;;1.30;99.90;;;;;;5065232;28;20040;-83
2021/12/02 05:59:24;;;;;;;4.00;2.58;;;1.30;99.90;;;;;;5044906;28;20079;-84
2021/12/02 06:01:50;;;;;;;3.72;2.10;;;1.30;99.90;;;;;;5062358;28;20448;-85
2021/12/02 06:04:16;;;;;;;3.90;1.98;;;1.30;99.90;;;;;;5066072;28;20041;-83
2021/12/02 06:06:42;;;;;;;3.78;1.73;;;1.30;99.90;;;;;;5065280;28;20502;-81
2021/12/02 06:09:07;;;;;;;3.67;2.05;;;1.40;99.90;;;;;;5059540;28;20029;-83
2021/12/02 06:11:33;;;;;;;4.93;2.65;;;1.30;99.90;;;;;;5064397;28;20021;-81
2021/12/02 06:13:59;;;;;;;4.20;1.80;;;1.30;99.90;;;;;;5061932;28;20029;-81
2021/12/02 06:16:25;;;;;;;3.25;1.73;;;1.30;99.90;;;;;;5065805;28;20029;-83
2021/12/02 06:18:51;;;;;;;5.90;1.90;;;1.40;99.90;;;;;;5063875;28;20040;-83
2021/12/02 06:21:16;;;;;;;5.25;2.15;;;1.50;99.90;;;;;;5060896;28;20537;-82
2021/12/02 06:23:42;;;;;;;3.70;1.80;;;1.40;99.90;;;;;;5052031;28;20039;-82
2021/12/02 06:26:08;;;;;;;3.53;1.67;;;1.40;99.90;;;;;;5068183;28;20013;-80
2021/12/02 06:28:34;;;;;;;3.28;1.70;;;1.40;99.90;;;;;;5086590;28;20029;-83
2021/12/02 06:31:02;;;;;;;3.42;1.60;;;1.40;99.90;;;;;;5068205;28;20029;-84
2021/12/02 06:33:29;;;;;;;4.75;1.80;;;1.40;99.90;;;;;;5054506;28;20044;-87
2021/12/02 06:35:55;;;;;;;3.65;1.73;;;1.50;99.90;;;;;;5066720;28;20032;-88
2021/12/02 06:38:21;;;;;;;2.30;1.40;;;1.50;99.90;;;;;;5065046;28;20086;-85
2021/12/02 06:40:46;;;;;;;4.28;2.30;;;1.50;99.90;;;;;;5051599;28;20041;-88
2021/12/02 06:43:16;;;;;;;2.80;2.05;;;1.50;99.90;;;;;;5066744;28;20067;-89
2021/12/02 06:45:42;;;;;;;4.97;2.00;;;1.60;99.90;;;;;;5046165;28;20492;-87
2021/12/02 06:48:08;;;;;;;2.33;0.95;;;1.60;99.90;;;;;;5065020;28;20032;-88
2021/12/02 06:50:36;;;;;;;2.65;1.33;;;1.70;99.90;;;;;;5067256;28;20028;-87
2021/12/02 06:53:02;;;;;;;3.03;0.95;;;1.70;99.90;;;;;;5066480;28;20371;-87
2021/12/02 06:55:27;;;;;;;2.03;1.00;;;1.70;99.90;;;;;;5067576;28;20081;-85
2021/12/02 06:57:53;;;;;;;2.63;1.25;;;1.70;99.90;;;;;;5062414;28;20404;-85
2021/12/02 07:00:21;;;;;;;0.93;0.80;;;1.80;99.90;;;;;;5065965;28;20115;-84
2021/12/02 07:02:48;;;;;;;10.80;1.98;;;1.80;99.90;;;;;;5046628;28;20123;-85
2021/12/02 07:05:16;;;;;;;3.40;1.17;;;1.80;99.90;;;;;;5066746;28;20035;-84
2021/12/02 07:07:42;;;;;;;2.53;1.08;;;1.90;99.90;;;;;;5064656;28;20400;-85
2021/12/02 07:10:18;;;;;;;4.70;1.67;;;1.90;99.90;;;;;;5047581;28;20032;-85
2021/12/02 07:12:47;;;;;;;4.22;1.15;;;1.90;99.90;;;;;;5049483;28;20021;-86
2021/12/02 07:15:17;;;;;;;1.77;1.02;;;1.90;99.90;;;;;;5067645;28;20112;-85
2021/12/02 07:17:45;;;;;;;9.82;1.10;;;1.90;99.90;;;;;;5061989;28;20029;-85
2021/12/02 07:20:12;;;;;;;3.60;1.67;;;1.90;99.90;;;;;;5064813;28;20021;-85
2021/12/02 07:22:38;;;;;;;3.60;1.55;;;2.00;99.90;;;;;;5065957;28;20056;-87
2021/12/02 07:25:05;;;;;;;2.60;1.02;;;2.00;99.90;;;;;;5069621;28;20052;-85
2021/12/02 07:27:31;;;;;;;4.13;1.17;;;2.00;99.90;;;;;;5061828;28;20028;-85
2021/12/02 07:29:57;;;;;;;3.42;1.77;;;2.10;99.90;;;;;;5044957;28;20073;-86
2021/12/02 07:32:30;;;;;;;3.25;1.25;;;2.10;99.90;;;;;;5066537;28;20033;-85
2021/12/02 07:35:00;;;;;;;2.30;1.40;;;2.20;99.90;;;;;;5067327;28;20040;-85
2021/12/02 07:37:27;;;;;;;5.45;1.33;;;2.20;99.90;;;;;;5048336;28;20032;-85
2021/12/02 07:39:53;;;;;;;4.65;1.20;;;2.30;99.90;;;;;;5063184;28;20025;-87
2021/12/02 07:42:19;;;;;;;4.07;1.15;;;2.30;99.90;;;;;;5060841;28;20028;-85
2021/12/02 07:44:46;;;;;;;5.03;1.65;;;2.30;99.90;;;;;;5048359;28;20044;-86
2021/12/02 07:47:13;;;;;;;4.72;1.45;;;2.30;99.90;;;;;;5066555;28;20107;-86
2021/12/02 07:49:39;;;;;;;3.38;1.70;;;2.40;99.90;;;;;;5066758;28;20032;-85
2021/12/02 07:52:08;;;;;;;4.25;1.20;;;2.40;99.90;;;;;;5048529;28;20117;-85
2021/12/02 07:54:34;;;;;;;3.50;1.02;;;2.40;99.90;;;;;;5047966;28;20053;-86
2021/12/02 07:57:00;;;;;;;9.73;2.35;;;2.40;99.90;;;;;;5046636;28;20039;-87
2021/12/02 07:59:27;;;;;;;5.45;1.80;;;2.40;99.90;;;;;;5062372;28;20107;-86
2021/12/02 08:01:59;;;;;;;4.05;1.48;;;2.40;99.90;;;;;;5065462;28;20045;-84
2021/12/02 08:04:27;;;;;;;2.97;1.50;;;2.50;99.90;;;;;;5066752;28;20485;-86
2021/12/02 08:06:53;;;;;;;7.25;2.20;;;2.50;99.90;;;;;;5064647;28;20064;-86
2021/12/02 08:09:19;;;;;;;6.18;1.52;;;2.50;99.90;;;;;;5063274;28;20074;-85
2021/12/02 08:11:44;;;;;;;5.45;1.80;;;2.40;99.90;;;;;;5065550;28;20025;-86
2021/12/02 08:14:17;;;;;;;4.57;1.55;;;2.40;99.90;;;;;;5049356;28;20039;-86
2021/12/02 08:16:43;;;;;;;5.38;1.50;;;2.30;99.90;;;;;;5062326;28;20025;-86
2021/12/02 08:19:09;;;;;;;5.35;1.60;;;2.30;99.90;;;;;;5062842;28;20472;-85
2021/12/02 08:21:35;;;;;;;7.88;2.00;;;2.30;99.90;;;;;;5064867;28;20033;-84
2021/12/02 08:24:00;;;;;;;3.40;1.52;;;2.40;99.90;;;;;;5066044;28;20025;-88
2021/12/02 08:26:26;;;;;;;10.27;3.47;;;2.50;99.90;;;;;;5051582;28;20071;-87
2021/12/02 08:28:52;;;;;;;8.32;1.52;;;2.60;99.90;;;;;;5066371;28;20029;-85
2021/12/02 08:31:17;;;;;;;6.45;1.80;;;2.60;99.90;;;;;;5045542;28;20039;-86
2021/12/02 08:33:44;;;;;;;8.45;1.55;;;2.50;99.90;;;;;;5063606;28;20029;-84
2021/12/02 08:36:10;;;;;;;5.05;1.40;;;2.60;99.90;;;;;;5047250;28;20021;-84
2021/12/02 08:38:36;;;;;;;3.42;1.50;;;2.60;99.90;;;;;;5031461;28;20370;-87
2021/12/02 08:41:02;;;;;;;3.45;1.90;;;2.70;99.90;;;;;;5061974;28;20028;-84
2021/12/02 08:43:30;;;;;;;3.95;1.70;;;2.80;99.90;;;;;;5060991;28;20035;-85
2021/12/02 08:45:55;;;;;;;4.28;1.42;;;2.90;99.90;;;;;;5061677;28;20104;-84
2021/12/02 08:48:21;;;;;;;7.63;1.48;;;3.00;99.90;;;;;;5065579;28;20484;-84
2021/12/02 08:50:47;;;;;;;6.15;2.03;;;3.20;99.90;;;;;;5046850;28;20033;-86
2021/12/02 08:53:13;;;;;;;5.45;1.70;;;3.20;99.90;;;;;;5048444;28;20036;-85
2021/12/02 08:55:40;;;;;;;3.08;1.60;;;3.20;99.90;;;;;;5046876;28;20036;-85
2021/12/02 08:58:08;;;;;;;4.00;1.30;;;3.20;99.90;;;;;;5047067;28;20038;-86
2021/12/02 09:00:36;;;;;;;4.25;1.60;;;3.10;99.90;;;;;;5063779;28;20025;-86
2021/12/02 09:03:07;;;;;;;5.50;1.20;;;3.00;99.90;;;;;;5061256;28;20181;-86
2021/12/02 09:05:35;;;;;;;2.95;1.10;;;3.00;99.90;;;;;;5064491;28;20020;-83
2021/12/02 09:08:02;;;;;;;4.85;1.30;;;3.00;99.90;;;;;;5083918;28;20017;-83
2021/12/02 09:10:28;;;;;;;5.30;2.10;;;3.10;99.90;;;;;;5080635;28;20044;-83
2021/12/02 09:12:55;;;;;;;2.45;1.17;;;3.30;99.90;;;;;;5066480;28;20507;-84
2021/12/02 09:15:21;;;;;;;3.88;1.63;;;3.50;99.90;;;;;;5045234;28;20029;-84
2021/12/02 09:17:47;;;;;;;4.38;1.50;;;3.60;99.90;;;;;;5062276;28;20039;-84
2021/12/02 09:20:15;;;;;;;4.43;2.00;;;3.50;99.90;;;;;;5064809;28;20468;-84
2021/12/02 09:22:42;;;;;;;6.80;1.58;;;3.40;99.90;;;;;;5062385;28;20120;-86
2021/12/02 09:25:09;;;;;;;5.45;2.03;;;3.40;99.90;;;;;;5063264;28;20107;-84
2021/12/02 09:27:34;;;;;;;2.08;1.58;;;3.40;99.90;;;;;;5060981;28;20025;-85
2021/12/02 09:30:01;;;;;;;9.02;2.28;;;3.40;99.90;;;;;;5065752;28;20051;-86
2021/12/02 09:32:27;;;;;;;4.35;1.45;;;3.40;99.90;;;;;;5060237;28;20463;-85
2021/12/02 09:34:53;;;;;;;2.17;1.38;;;3.40;99.90;;;;;;5066637;28;20035;-84
2021/12/02 09:37:19;;;;;;;3.65;1.98;;;3.50;99.90;;;;;;5063195;28;20108;-84
2021/12/02 09:39:44;;;;;;;5.15;1.70;;;3.60;99.90;;;;;;5048409;28;20033;-84
2021/12/02 09:42:10;;;;;;;3.40;1.60;;;3.60;99.90;;;;;;5065757;28;20497;-84
2021/12/02 09:44:38;;;;;;;3.65;1.70;;;3.70;99.90;;;;;;5062147;28;20045;-85
2021/12/02 09:47:04;;;;;;;4.40;1.83;;;3.80;99.90;;;;;;5048287;28;20038;-84
2021/12/02 09:49:30;;;;;;;2.60;1.58;;;3.90;99.90;;;;;;5063448;28;20551;-84
2021/12/02 09:52:04;;;;;;;2.17;1.63;;;4.00;99.90;;;;;;5063818;28;20044;-83
2021/12/02 09:57:00;;;;;;;2.40;1.40;;;4.10;99.90;;;;;;5065502;28;20024;-83
2021/12/02 09:59:34;;;;;;;2.67;1.70;;;4.20;99.90;;;;;;5057390;28;20024;-83
2021/12/02 10:02:03;;;;;;;5.05;1.83;;;4.30;99.90;;;;;;5053997;28;20106;-84
2021/12/02 10:04:29;;;;;;;7.72;3.00;;;4.40;99.90;;;;;;5047129;28;20054;-83
2021/12/02 10:07:10;;;;;;;4.15;1.13;;;4.20;99.90;;;;;;5060355;28;20044;-84
2021/12/02 10:09:50;;;;;;;;;;;4.20;99.90;;;;;;5060894;28;20021;-84
2021/12/02 10:12:19;;;;;;;2.88;1.30;;;4.30;99.90;;;;;;5058398;28;20015;-83
2021/12/02 10:14:54;;;;;;;1.48;0.70;;;4.30;99.90;;;;;;5048292;28;20056;-83
2021/12/02 10:18:07;;;;;;;2.05;1.10;;;4.40;99.90;;;;;;5063979;28;20036;-83
2021/12/02 10:23:18;;;;;;;1.67;0.98;;;4.40;99.90;;;;;;5045060;28;20040;-84
2021/12/02 10:25:49;;;;;;;1.60;0.98;;;4.40;99.90;;;;;;5063534;28;20032;-83
2021/12/02 10:28:18;;;;;;;2.80;0.93;;;4.30;99.90;;;;;;5061931;28;20021;-83
2021/12/02 10:30:46;;;;;;;1.70;0.90;;;4.40;99.90;;;;;;5063375;28;20094;-83
2021/12/02 10:33:13;;;;;;;3.30;0.90;;;4.40;99.90;;;;;;5062667;28;20480;-83
2021/12/02 10:35:47;;;;;;;4.75;1.00;;;4.40;99.90;;;;;;5064213;28;20025;-81
2021/12/02 10:38:35;;;;;;;1.08;0.75;;;4.50;99.90;;;;;;5060263;28;20078;-83
2021/12/02 10:41:04;;;;;;;3.35;1.00;;;4.80;99.90;;;;;;5066832;28;20012;-82
2021/12/02 10:43:30;;;;;;;1.50;0.98;;;5.00;99.90;;;;;;5080311;28;20134;-83
2021/12/02 10:46:19;;;;;;;3.03;1.00;;;5.10;99.90;;;;;;5064709;28;20508;-82
2021/12/02 10:48:51;;;;;;;3.17;1.05;;;5.10;99.90;;;;;;5050816;28;20033;-83
2021/12/02 10:51:38;;;;;;;1.65;1.30;;;5.00;99.90;;;;;;5061318;28;20012;-83
2021/12/02 10:54:08;;;;;;;4.57;1.30;;;4.80;99.90;;;;;;5045777;28;20040;-83
2021/12/02 10:56:37;;;;;;;4.47;1.60;;;4.60;99.90;;;;;;5046317;28;20082;-83
2021/12/02 10:59:27;;;;;;;4.93;1.38;;;4.60;99.90;;;;;;5062076;28;20639;-83
2021/12/02 11:01:55;;;;;;;2.63;1.30;;;4.50;99.90;;;;;;5040834;28;20428;-84
2021/12/02 11:04:22;;;;;;;1.83;1.50;;;4.30;99.90;;;;;;5046758;28;20037;-83
2021/12/02 11:06:56;;;;;;;1.48;1.05;;;4.40;99.90;;;;;;5060431;28;20029;-83
2021/12/02 11:09:29;;;;;;;3.17;1.20;;;4.40;99.90;;;;;;5063778;28;20061;-85
2021/12/02 11:12:10;;;;;;;3.17;1.50;;;4.40;99.90;;;;;;5063780;28;20500;-83
2021/12/02 11:14:39;;;;;;;2.42;1.42;;;4.30;99.90;;;;;;5043842;28;20029;-83
2021/12/02 11:17:10;;;;;;;1.58;1.00;;;4.30;99.90;;;;;;5062108;28;20121;-84
2021/12/02 11:19:36;;;;;;;5.50;1.40;;;4.30;99.90;;;;;;5063263;28;20020;-84
2021/12/02 11:22:10;;;;;;;2.65;1.30;;;4.40;99.90;;;;;;5067553;28;20032;-84
2021/12/02 11:24:37;;;;;;;4.25;1.38;;;4.50;99.90;;;;;;5067081;28;20029;-86
2021/12/02 11:27:17;;;;;;;2.40;1.38;;;4.50;99.90;;;;;;5061981;28;20029;-86
2021/12/02 11:30:08;;;;;;;2.58;0.90;;;4.60;99.90;;;;;;5064062;28;20527;-86
2021/12/02 11:32:36;;;;;;;3.05;1.08;;;4.90;99.90;;;;;;5062095;28;20032;-89
2021/12/02 11:35:13;;;;;;;2.33;1.10;;;5.00;99.90;;;;;;5067507;28;20035;-87
2021/12/02 11:37:41;;;;;;;1.30;1.08;;;4.90;99.90;;;;;;5067868;28;20029;-89
2021/12/02 11:40:29;;;;;;;2.47;0.90;;;4.70;99.90;;;;;;5048879;28;20115;-86
2021/12/02 11:42:55;;;;;;;1.40;0.90;;;4.80;99.90;;;;;;5068151;28;20556;-86
2021/12/02 11:45:24;;;;;;;2.67;1.23;;;4.80;99.90;;;;;;5063579;28;20146;-86
2021/12/02 11:47:52;;;;;;;2.40;1.10;;;5.00;99.90;;;;;;5048632;28;20058;-86
2021/12/02 11:50:20;;;;;;;1.55;0.98;;;5.10;99.90;;;;;;5065436;28;20517;-83
2021/12/02 11:52:47;;;;;;;2.80;1.20;;;5.10;99.90;;;;;;5066867;28;20116;-83
2021/12/02 11:55:18;;;;;;;2.22;1.15;;;4.90;99.90;;;;;;5060429;28;20032;-83
2021/12/02 11:57:43;;;;;;;2.85;1.20;;;4.80;99.90;;;;;;5047914;28;20111;-85
2021/12/02 12:00:13;;;;;;;4.53;1.10;;;4.70;99.90;;;;;;5048730;28;20215;-83
2021/12/02 12:02:47;;;;;;;2.20;0.90;;;4.70;99.90;;;;;;5046674;28;20037;-83
2021/12/02 12:05:15;;;;;;;3.13;1.10;;;4.70;99.90;;;;;;5062046;28;20032;-83
2021/12/02 12:07:46;;;;;;;2.05;1.02;;;4.80;99.90;;;;;;5064607;28;20089;-84
2021/12/02 12:10:13;;;;;;;5.50;1.52;;;4.80;99.90;;;;;;5066072;28;20032;-84
2021/12/02 12:12:42;;;;;;;3.75;1.52;;;4.90;99.90;;;;;;5061416;28;20025;-83
2021/12/02 12:15:33;;;;;;;5.28;1.50;;;4.80;99.90;;;;;;5062368;28;20087;-84
2021/12/02 12:18:00;;;;;;;6.60;1.65;;;4.90;99.90;;;;;;5047521;28;20029;-83
2021/12/02 12:20:50;;;;;;;2.53;1.52;;;4.80;99.90;;;;;;5062810;28;20166;-86
2021/12/02 12:23:29;;;;;;;2.55;1.50;;;4.90;99.90;;;;;;5046252;28;20051;-82
2021/12/02 12:26:12;;;;;;;3.42;1.05;;;4.90;99.90;;;;;;5068201;28;20021;-82
2021/12/02 12:29:09;;;;;;;2.30;1.38;;;5.10;99.90;;;;;;5047196;28;20036;-82
2021/12/02 12:32:03;;;;;;;2.95;1.30;;;5.10;99.90;;;;;;5065055;28;20025;-82
2021/12/02 12:36:56;;;;;;;3.08;1.30;;;5.00;99.90;;;;;;5068485;28;20032;-80
2021/12/02 12:39:33;;;;;;;2.10;1.10;;;4.90;99.90;;;;;;5082551;28;20113;-77
2021/12/02 12:42:15;;;;;;;3.95;1.58;;;4.90;99.90;;;;;;5079373;28;20024;-80
2021/12/02 12:44:52;;;;;;;4.03;1.85;;;4.90;99.90;;;;;;5038929;28;20098;-82
2021/12/02 12:47:19;;;;;;;2.03;1.33;;;4.70;99.90;;;;;;5022679;28;20022;-81
2021/12/02 12:49:46;;;;;;;0.98;0.70;;;4.70;99.90;;;;;;5024073;28;20047;-81
2021/12/02 12:52:20;;;;;;;0.45;0.30;;;4.40;99.90;;;;;;5026622;28;20509;-81
2021/12/02 12:55:17;;;;;;;0.85;0.28;;;3.80;99.90;;;;;;5024457;28;20052;-80
2021/12/02 12:58:08;;;;;;;0.20;0.20;;;3.40;99.90;;;;;;5028449;28;20042;-81
2021/12/02 13:00:41;;;;;;;0.30;0.25;;;3.00;99.90;;;;;;5029814;28;20054;-81
2021/12/02 13:03:15;;;;;;;0.77;0.20;;;2.30;99.90;;;;;;5043633;28;20400;-82
2021/12/02 13:05:48;;;;;;;3.10;0.85;;;2.00;99.90;;;;;;5024217;28;20025;-84
2021/12/02 13:08:22;;;;;;;0.10;0.10;;;1.80;99.90;;;;;;5025820;28;20025;-83
2021/12/02 13:11:09;;;;;;;0.30;0.20;;;1.70;99.90;;;;;;5021044;28;20033;-88
2021/12/02 13:13:38;;;;;;;0.60;0.10;;;1.60;99.90;;;;;;5022840;28;20026;-86
2021/12/02 13:16:16;;;;;;;0.63;0.30;;;1.60;99.90;;;;;;5036392;28;20032;-83
2021/12/02 13:18:53;;;;;;;1.10;0.30;;;1.70;99.90;;;;;;5019744;28;20034;-84
2021/12/02 13:21:33;;;;;;;0.47;0.40;;;1.70;99.90;;;;;;5019941;28;20104;-83
2021/12/02 13:24:09;;;;;;;1.70;0.95;;;1.70;99.90;;;;;;5023140;28;20064;-83
2021/12/02 13:26:34;;;;;;;0.30;0.30;;;1.60;99.90;;;;;;5023621;28;20528;-85
2021/12/02 13:29:05;;;;;;;0.60;0.40;;;1.50;99.90;;;;;;5019569;28;20097;-84
2021/12/02 13:31:31;;;;;;;1.58;0.63;;;1.40;99.90;;;;;;5019730;28;20482;-84